Time;durP1;ratioP1;P1;durP2;ratioP2;P2;SDS_P1;SDS_P2;PMS_P1;PMS_P2;Temp;Humidity;BMP_temperature;BMP_pressure;BME280_temperature;BME280_humidity;BME280_pressure;Samples;Min_cycle;Max_cycle;Signal;HPM_P1;HPM_P2
2024/03/30 00:01:09;;;;;;;4.20;3.42;;;8.30;99.90;;;;;;4989754;28;20038;-83
2024/03/30 00:03:34;;;;;;;3.90;3.50;;;8.30;99.90;;;;;;4969383;28;20104;-82
2024/03/30 00:06:01;;;;;;;4.65;3.65;;;8.30;99.90;;;;;;4964716;28;20034;-83
2024/03/30 00:08:27;;;;;;;3.70;3.40;;;8.30;99.90;;;;;;4987802;28;20627;-83
2024/03/30 00:11:03;;;;;;;5.40;3.63;;;8.20;99.90;;;;;;4965847;28;20057;-83
2024/03/30 00:13:29;;;;;;;4.15;3.25;;;8.30;99.90;;;;;;4966851;28;20176;-83
2024/03/30 00:15:55;;;;;;;3.85;3.53;;;8.30;99.90;;;;;;4962507;28;20034;-83
2024/03/30 00:18:21;;;;;;;3.50;3.08;;;8.30;99.90;;;;;;4938932;28;20084;-85
2024/03/30 00:20:46;;;;;;;3.97;3.33;;;8.20;99.90;;;;;;4979543;28;20018;-83
2024/03/30 00:23:12;;;;;;;4.30;3.38;;;8.20;99.90;;;;;;4951776;28;22093;-84
2024/03/30 00:25:38;;;;;;;4.22;3.00;;;8.30;99.90;;;;;;4929387;28;21474;-84
2024/03/30 00:28:03;;;;;;;3.25;2.78;;;8.20;99.90;;;;;;4955953;28;20045;-83
2024/03/30 00:30:31;;;;;;;4.00;3.03;;;8.30;99.90;;;;;;4943610;28;20097;-84
2024/03/30 00:32:57;;;;;;;3.50;3.13;;;8.30;99.90;;;;;;4958474;28;20025;-83
2024/03/30 00:35:22;;;;;;;2.60;2.40;;;8.30;99.90;;;;;;4989914;28;20030;-83
2024/03/30 00:37:51;;;;;;;3.30;2.95;;;8.30;99.90;;;;;;4978009;28;20046;-85
2024/03/30 00:40:17;;;;;;;4.60;3.08;;;8.30;99.90;;;;;;5000340;28;20053;-82
2024/03/30 00:42:42;;;;;;;3.45;3.13;;;8.30;99.90;;;;;;4992821;28;20017;-87
2024/03/30 00:45:08;;;;;;;3.33;2.88;;;8.30;99.90;;;;;;4970637;28;20030;-84
2024/03/30 00:47:33;;;;;;;3.80;3.30;;;8.30;99.90;;;;;;4983586;28;20026;-84
2024/03/30 00:49:59;;;;;;;3.25;2.90;;;8.30;99.90;;;;;;4960230;28;20030;-84
2024/03/30 00:52:25;;;;;;;4.60;3.78;;;8.20;99.90;;;;;;4972623;28;20032;-83
2024/03/30 00:54:51;;;;;;;4.00;3.60;;;8.30;99.90;;;;;;4993723;28;20026;-84
2024/03/30 00:57:16;;;;;;;4.70;3.33;;;8.20;99.90;;;;;;4962373;28;20022;-83
2024/03/30 00:59:42;;;;;;;3.80;3.40;;;8.20;99.90;;;;;;4978029;28;20030;-84
2024/03/30 01:02:07;;;;;;;2.88;2.60;;;8.20;99.90;;;;;;4953714;28;20033;-84
2024/03/30 01:04:34;;;;;;;4.43;3.45;;;8.20;99.90;;;;;;4963072;28;20031;-83
2024/03/30 01:07:01;;;;;;;4.47;3.45;;;8.30;99.90;;;;;;4986140;28;20030;-83
2024/03/30 01:09:27;;;;;;;4.22;3.83;;;8.30;99.90;;;;;;4948489;28;20080;-84
2024/03/30 01:11:53;;;;;;;3.75;3.35;;;8.30;99.90;;;;;;4969838;28;20030;-83
2024/03/30 01:14:21;;;;;;;4.50;3.22;;;8.30;99.90;;;;;;4984492;28;20367;-84
2024/03/30 01:16:47;;;;;;;4.68;3.45;;;8.20;99.90;;;;;;4968846;28;20033;-84
2024/03/30 01:19:13;;;;;;;4.57;3.35;;;8.30;99.90;;;;;;4983252;28;20036;-83
2024/03/30 01:21:39;;;;;;;3.92;3.55;;;8.30;99.90;;;;;;4971132;28;20033;-84
2024/03/30 01:24:05;;;;;;;5.70;3.35;;;8.30;99.90;;;;;;4969644;28;20037;-84
2024/03/30 01:26:31;;;;;;;3.30;3.00;;;8.30;99.90;;;;;;4983613;28;20033;-83
2024/03/30 01:28:59;;;;;;;3.90;3.50;;;8.30;99.90;;;;;;4966779;28;20026;-85
2024/03/30 01:31:25;;;;;;;3.65;3.28;;;8.30;99.90;;;;;;4973111;28;20023;-84
2024/03/30 01:33:51;;;;;;;4.38;3.55;;;8.30;99.90;;;;;;4985156;28;20596;-83
2024/03/30 01:36:17;;;;;;;3.00;2.80;;;8.30;99.90;;;;;;4963261;28;20049;-84
2024/03/30 01:38:42;;;;;;;3.53;3.10;;;8.40;99.90;;;;;;4982350;28;20026;-83
2024/03/30 01:41:09;;;;;;;3.03;2.72;;;8.30;99.90;;;;;;4970220;28;20431;-83
2024/03/30 01:43:35;;;;;;;6.97;4.03;;;8.30;99.90;;;;;;4969957;28;21095;-84
2024/03/30 01:46:00;;;;;;;3.67;3.33;;;8.30;99.90;;;;;;4990828;28;20557;-83
2024/03/30 01:48:26;;;;;;;4.68;4.28;;;8.30;99.90;;;;;;4967274;28;20855;-83
2024/03/30 01:50:52;;;;;;;4.03;3.63;;;8.30;99.90;;;;;;4976400;28;20026;-81
2024/03/30 01:53:25;;;;;;;4.38;3.70;;;8.30;99.90;;;;;;4986568;28;20026;-85
2024/03/30 01:55:52;;;;;;;3.35;3.05;;;8.30;99.90;;;;;;4983607;28;20033;-81
2024/03/30 01:58:24;;;;;;;4.65;3.33;;;8.30;99.90;;;;;;5002267;28;20018;-79
2024/03/30 02:00:52;;;;;;;3.50;3.13;;;8.40;99.90;;;;;;5011144;28;20072;-82
2024/03/30 02:03:21;;;;;;;6.47;2.70;;;8.40;99.90;;;;;;4984436;28;20117;-83
2024/03/30 02:05:47;;;;;;;2.97;2.67;;;8.40;99.90;;;;;;4977176;28;20054;-83
2024/03/30 02:08:13;;;;;;;2.80;2.40;;;8.40;99.90;;;;;;4986271;28;20587;-82
2024/03/30 02:10:40;;;;;;;2.95;2.42;;;8.40;99.90;;;;;;4977883;28;21144;-83
2024/03/30 02:13:06;;;;;;;3.45;3.15;;;8.40;99.90;;;;;;5004950;28;21247;-83
2024/03/30 02:15:32;;;;;;;3.10;2.80;;;8.50;99.90;;;;;;4981552;28;20027;-82
2024/03/30 02:17:59;;;;;;;2.55;2.35;;;8.40;99.90;;;;;;4977477;28;20034;-82
2024/03/30 02:20:24;;;;;;;3.15;2.83;;;8.50;99.90;;;;;;4975784;28;20108;-83
2024/03/30 02:22:54;;;;;;;3.05;2.38;;;8.50;99.90;;;;;;4977288;28;20126;-82
2024/03/30 02:25:21;;;;;;;3.13;2.83;;;8.50;99.90;;;;;;4977727;28;20442;-83
2024/03/30 02:27:48;;;;;;;4.45;2.20;;;8.50;99.90;;;;;;4991043;28;20038;-81
2024/03/30 02:30:29;;;;;;;3.85;2.40;;;8.50;99.90;;;;;;4978354;28;20030;-83
2024/03/30 02:32:56;;;;;;;2.35;2.00;;;8.50;99.90;;;;;;4965196;28;20029;-82
2024/03/30 02:35:22;;;;;;;2.58;2.25;;;8.50;99.90;;;;;;4966899;28;20026;-82
2024/03/30 02:37:48;;;;;;;3.35;2.40;;;8.50;99.90;;;;;;4972513;28;20098;-83
2024/03/30 02:40:14;;;;;;;3.60;1.80;;;8.60;99.90;;;;;;4990520;28;20046;-82
2024/03/30 02:42:40;;;;;;;2.13;1.92;;;8.50;99.90;;;;;;4984261;28;20022;-82
2024/03/30 02:45:07;;;;;;;2.35;1.80;;;8.50;99.90;;;;;;4972141;28;21315;-83
2024/03/30 02:47:33;;;;;;;2.50;2.30;;;8.60;99.90;;;;;;4962469;28;20073;-84
2024/03/30 02:49:58;;;;;;;2.85;2.25;;;8.50;99.90;;;;;;4971341;28;20058;-83
2024/03/30 02:52:24;;;;;;;1.88;1.77;;;8.60;99.90;;;;;;4963701;28;20609;-82
2024/03/30 02:54:50;;;;;;;3.50;2.45;;;8.50;99.90;;;;;;4985647;28;20040;-81
2024/03/30 02:57:15;;;;;;;2.22;1.95;;;8.60;99.90;;;;;;4978155;28;20014;-83
2024/03/30 02:59:42;;;;;;;2.78;2.33;;;8.60;99.90;;;;;;4964732;28;20029;-83
2024/03/30 03:02:07;;;;;;;1.80;1.70;;;8.60;99.90;;;;;;4973885;28;20534;-84
2024/03/30 03:04:33;;;;;;;2.72;2.00;;;8.60;99.90;;;;;;4963688;28;20023;-84
2024/03/30 03:06:58;;;;;;;2.10;1.90;;;8.60;99.90;;;;;;4979702;28;20069;-82
2024/03/30 03:09:24;;;;;;;1.65;1.55;;;8.60;99.90;;;;;;4983366;28;20081;-84
2024/03/30 03:11:49;;;;;;;1.90;1.75;;;8.70;99.90;;;;;;4990798;28;20033;-84
2024/03/30 03:14:15;;;;;;;2.05;1.85;;;8.70;99.90;;;;;;4988747;28;20045;-82
2024/03/30 03:16:41;;;;;;;2.08;1.63;;;8.70;99.90;;;;;;4992092;28;20048;-82
2024/03/30 03:19:06;;;;;;;1.85;1.75;;;8.70;99.90;;;;;;4981526;28;21582;-82
2024/03/30 03:21:32;;;;;;;3.15;1.40;;;8.70;99.90;;;;;;5002072;28;20030;-83
2024/03/30 03:23:57;;;;;;;3.70;2.10;;;8.70;99.90;;;;;;4987009;28;20018;-82
2024/03/30 03:26:23;;;;;;;3.13;1.70;;;8.70;99.90;;;;;;4976432;28;20089;-83
2024/03/30 03:28:48;;;;;;;2.67;1.60;;;8.80;99.90;;;;;;4984840;28;20034;-83
2024/03/30 03:31:13;;;;;;;2.90;1.90;;;8.70;99.90;;;;;;4978300;28;20693;-83
2024/03/30 03:33:39;;;;;;;1.50;1.40;;;8.70;99.90;;;;;;4983344;28;20038;-84
2024/03/30 03:36:05;;;;;;;1.60;1.50;;;8.80;99.90;;;;;;4965544;28;20053;-83
2024/03/30 03:38:30;;;;;;;1.92;1.58;;;8.80;99.90;;;;;;4964520;28;20511;-84
2024/03/30 03:40:56;;;;;;;2.58;1.70;;;8.80;99.90;;;;;;4978031;28;20092;-81
2024/03/30 03:43:22;;;;;;;2.10;1.92;;;8.80;99.90;;;;;;4967188;28;20037;-83
2024/03/30 03:45:49;;;;;;;3.17;1.73;;;8.80;99.90;;;;;;4981627;28;20128;-81
2024/03/30 03:48:14;;;;;;;1.65;1.55;;;8.80;99.90;;;;;;4974470;28;20780;-83
2024/03/30 03:50:41;;;;;;;2.08;1.63;;;8.80;99.90;;;;;;4962930;28;20037;-84
2024/03/30 03:53:07;;;;;;;2.97;1.40;;;8.80;99.90;;;;;;4990835;28;20030;-83
2024/03/30 03:55:33;;;;;;;2.05;1.77;;;8.80;99.90;;;;;;4967889;28;20027;-84
2024/03/30 03:58:02;;;;;;;1.58;1.33;;;8.80;99.90;;;;;;4963497;28;20108;-82
2024/03/30 04:00:27;;;;;;;3.45;1.33;;;8.90;99.90;;;;;;4986539;28;20599;-81
2024/03/30 04:02:53;;;;;;;1.77;1.63;;;8.90;99.90;;;;;;4965812;28;20030;-83
2024/03/30 04:05:19;;;;;;;1.73;1.60;;;8.90;99.90;;;;;;4976932;28;20526;-82
2024/03/30 04:07:45;;;;;;;2.83;1.45;;;8.90;99.90;;;;;;4971727;28;20040;-82
2024/03/30 04:10:14;;;;;;;1.35;1.20;;;8.90;99.90;;;;;;4964121;28;20041;-84
2024/03/30 04:12:39;;;;;;;2.35;1.23;;;8.90;99.90;;;;;;4980149;28;20553;-83
2024/03/30 04:15:05;;;;;;;1.35;1.25;;;8.90;99.90;;;;;;4967602;28;20121;-82
2024/03/30 04:17:34;;;;;;;2.90;1.50;;;8.90;99.90;;;;;;4958636;28;20478;-82
2024/03/30 04:19:59;;;;;;;1.75;1.48;;;8.90;99.90;;;;;;4976871;28;20034;-83
2024/03/30 04:22:25;;;;;;;1.55;1.38;;;8.90;99.90;;;;;;4966792;28;20034;-82
2024/03/30 04:24:50;;;;;;;1.35;1.25;;;8.90;99.90;;;;;;4972325;28;20038;-81
2024/03/30 04:27:16;;;;;;;2.15;1.40;;;8.90;99.90;;;;;;4978930;28;20022;-83
2024/03/30 04:29:42;;;;;;;1.42;1.33;;;8.90;99.90;;;;;;4957846;28;21182;-83
2024/03/30 04:32:08;;;;;;;1.50;1.40;;;8.90;99.90;;;;;;4987412;28;20034;-83
2024/03/30 04:34:35;;;;;;;2.08;1.55;;;8.90;99.90;;;;;;4964377;28;20030;-82
2024/03/30 04:37:00;;;;;;;2.00;1.35;;;8.90;99.90;;;;;;4957989;28;20069;-82
2024/03/30 04:39:26;;;;;;;1.58;1.48;;;8.90;99.90;;;;;;4986676;28;20049;-83
2024/03/30 04:41:51;;;;;;;1.40;1.30;;;8.90;99.90;;;;;;4961151;28;20121;-83
2024/03/30 04:44:17;;;;;;;1.88;1.48;;;8.90;99.90;;;;;;4977282;28;20030;-81
2024/03/30 04:46:42;;;;;;;1.70;1.10;;;8.90;99.90;;;;;;4973368;28;20037;-82
2024/03/30 04:49:08;;;;;;;1.60;1.50;;;8.90;99.90;;;;;;4958420;28;21511;-83
2024/03/30 04:51:34;;;;;;;2.20;1.73;;;8.90;99.90;;;;;;4978299;28;20026;-82
2024/03/30 04:53:59;;;;;;;2.85;1.60;;;8.90;99.90;;;;;;4955542;28;20108;-82
2024/03/30 04:56:25;;;;;;;2.40;1.92;;;8.90;99.90;;;;;;4965560;28;20777;-82
2024/03/30 04:58:50;;;;;;;1.95;1.63;;;8.90;99.90;;;;;;4982890;28;20563;-83
2024/03/30 05:01:16;;;;;;;2.25;1.33;;;8.90;99.90;;;;;;4960351;28;20053;-84
2024/03/30 05:03:42;;;;;;;1.75;1.58;;;8.90;99.90;;;;;;4983247;28;21945;-84
2024/03/30 05:06:08;;;;;;;1.30;1.20;;;8.90;99.90;;;;;;4953003;28;20053;-82
2024/03/30 05:08:33;;;;;;;1.70;1.60;;;8.90;99.90;;;;;;4983482;28;20037;-83
2024/03/30 05:11:00;;;;;;;3.42;1.50;;;8.90;99.90;;;;;;5005618;28;20021;-83
2024/03/30 05:13:25;;;;;;;1.70;1.45;;;8.90;99.90;;;;;;4993914;28;20034;-82
2024/03/30 05:15:51;;;;;;;2.75;1.98;;;8.90;99.90;;;;;;4995813;28;20121;-82
2024/03/30 05:18:18;;;;;;;2.05;1.63;;;8.90;99.90;;;;;;4999889;28;20443;-82
2024/03/30 05:20:50;;;;;;;2.30;1.75;;;8.90;99.90;;;;;;4994092;28;20030;-83
2024/03/30 05:23:20;;;;;;;2.40;2.17;;;8.90;99.90;;;;;;4998619;28;20061;-82
2024/03/30 05:25:46;;;;;;;1.65;1.52;;;8.90;99.90;;;;;;5001815;28;20049;-82
2024/03/30 05:28:16;;;;;;;2.88;1.80;;;8.90;99.90;;;;;;4989699;28;20029;-82
2024/03/30 05:30:42;;;;;;;2.00;1.40;;;8.90;99.90;;;;;;5001564;28;20026;-82
2024/03/30 05:33:10;;;;;;;1.92;1.73;;;8.90;99.90;;;;;;4992499;28;20036;-82
2024/03/30 05:35:36;;;;;;;1.83;1.33;;;9.00;99.90;;;;;;4983438;28;20595;-81
2024/03/30 05:38:03;;;;;;;1.70;1.60;;;8.90;99.90;;;;;;5003092;28;20022;-82
2024/03/30 05:40:32;;;;;;;2.38;1.45;;;9.00;99.90;;;;;;4992846;28;20398;-83
2024/03/30 05:43:01;;;;;;;1.85;1.38;;;9.00;99.90;;;;;;4991753;28;20014;-82
2024/03/30 05:45:27;;;;;;;1.95;1.50;;;9.00;99.90;;;;;;4999512;28;20065;-82
2024/03/30 05:47:54;;;;;;;1.67;1.40;;;9.00;99.90;;;;;;4988728;28;20224;-82
2024/03/30 05:50:24;;;;;;;3.13;1.67;;;9.00;99.90;;;;;;4999326;28;20034;-81
2024/03/30 05:52:50;;;;;;;2.33;1.77;;;9.10;99.90;;;;;;5005144;28;20022;-83
2024/03/30 05:55:16;;;;;;;2.55;1.83;;;9.10;99.90;;;;;;4992288;28;20033;-82
2024/03/30 05:57:41;;;;;;;2.20;2.00;;;9.20;99.90;;;;;;5002596;28;20359;-82
2024/03/30 06:00:10;;;;;;;2.72;2.10;;;9.20;99.90;;;;;;4991004;28;20265;-83
2024/03/30 06:02:36;;;;;;;2.50;2.08;;;9.20;99.90;;;;;;4963206;28;20030;-82
2024/03/30 06:05:02;;;;;;;2.25;1.60;;;9.30;99.90;;;;;;4987576;28;20029;-81
2024/03/30 06:07:27;;;;;;;2.78;2.00;;;9.30;99.90;;;;;;4968505;28;20013;-82
2024/03/30 06:09:53;;;;;;;5.20;2.53;;;9.30;99.90;;;;;;4961789;28;20378;-80
2024/03/30 06:12:19;;;;;;;2.67;2.17;;;9.30;99.90;;;;;;4986719;28;20033;-83
2024/03/30 06:14:47;;;;;;;2.47;2.20;;;9.30;99.90;;;;;;4962255;28;22056;-83
2024/03/30 06:17:13;;;;;;;2.08;1.83;;;9.40;99.90;;;;;;4985791;28;20021;-82
2024/03/30 06:19:40;;;;;;;3.33;2.75;;;9.40;99.90;;;;;;4954614;28;20044;-81
2024/03/30 06:22:06;;;;;;;2.97;2.47;;;9.40;99.90;;;;;;4952723;28;21830;-82
2024/03/30 06:24:32;;;;;;;4.03;2.53;;;9.40;99.90;;;;;;4980414;28;20470;-81
2024/03/30 06:26:57;;;;;;;4.43;2.35;;;9.50;99.90;;;;;;4964118;28;20634;-82
2024/03/30 06:29:29;;;;;;;2.60;2.17;;;9.50;99.90;;;;;;4963280;28;20017;-81
2024/03/30 06:31:55;;;;;;;1.90;1.80;;;9.60;99.90;;;;;;4986834;28;20022;-82
2024/03/30 06:34:20;;;;;;;2.70;1.85;;;9.60;99.90;;;;;;4954183;28;20536;-83
2024/03/30 06:36:55;;;;;;;2.20;1.88;;;9.60;99.90;;;;;;4979898;28;20631;-82
2024/03/30 06:39:21;;;;;;;2.67;2.17;;;9.70;99.90;;;;;;4980004;28;20025;-83
2024/03/30 06:44:30;;;;;;;1.88;1.63;;;9.80;99.90;;;;;;4964868;28;20041;-82
2024/03/30 06:46:56;;;;;;;1.95;1.77;;;9.80;99.90;;;;;;4985913;28;20657;-83
2024/03/30 06:49:22;;;;;;;3.00;1.90;;;9.90;99.90;;;;;;4970709;28;20030;-84
2024/03/30 06:51:54;;;;;;;2.00;1.52;;;10.00;99.90;;;;;;4972836;28;20026;-83
2024/03/30 06:54:23;;;;;;;2.00;1.80;;;10.00;99.90;;;;;;4982256;28;20069;-84
2024/03/30 06:56:48;;;;;;;1.90;1.70;;;10.10;99.90;;;;;;4960102;28;20363;-83
2024/03/30 06:59:14;;;;;;;1.52;1.42;;;10.10;99.90;;;;;;4984899;28;20076;-83
2024/03/30 07:01:40;;;;;;;3.60;2.20;;;10.20;99.90;;;;;;4959204;28;20088;-84
2024/03/30 07:04:05;;;;;;;1.63;1.52;;;10.20;99.90;;;;;;4960073;28;20037;-83
2024/03/30 07:06:31;;;;;;;1.67;1.50;;;10.30;99.90;;;;;;4982254;28;20030;-84
2024/03/30 07:08:59;;;;;;;2.20;1.50;;;10.40;99.90;;;;;;4959986;28;20390;-84
2024/03/30 07:11:26;;;;;;;2.65;1.70;;;10.40;99.90;;;;;;4967325;28;20449;-82
2024/03/30 07:13:51;;;;;;;2.38;1.50;;;10.50;99.90;;;;;;4994817;28;20112;-83
2024/03/30 07:16:17;;;;;;;1.75;1.38;;;10.60;99.90;;;;;;4970064;28;20109;-83
2024/03/30 07:18:56;;;;;;;1.60;1.50;;;10.70;99.90;;;;;;4985751;28;20018;-83
2024/03/30 07:21:21;;;;;;;1.70;1.50;;;10.80;99.90;;;;;;4978222;28;20158;-83
2024/03/30 07:23:47;;;;;;;1.60;1.50;;;10.90;99.90;;;;;;4961986;28;20021;-84
2024/03/30 07:26:12;;;;;;;2.97;1.60;;;11.10;99.90;;;;;;4980787;28;20026;-84
2024/03/30 07:28:38;;;;;;;3.20;1.65;;;11.20;99.90;;;;;;4968865;28;20026;-83
2024/03/30 07:31:11;;;;;;;1.98;1.30;;;11.30;99.90;;;;;;4962472;28;20518;-84
2024/03/30 07:33:37;;;;;;;1.20;1.10;;;11.40;99.90;;;;;;4979657;28;20515;-83
2024/03/30 07:36:03;;;;;;;0.95;0.93;;;11.50;99.90;;;;;;4965271;28;20018;-82
2024/03/30 07:38:33;;;;;;;1.33;1.23;;;11.60;99.90;;;;;;4968732;28;20433;-84
2024/03/30 07:40:59;;;;;;;1.08;0.98;;;11.70;99.90;;;;;;4991627;28;20038;-83
2024/03/30 07:43:25;;;;;;;2.08;1.20;;;11.90;99.90;;;;;;4972924;28;20018;-84
2024/03/30 07:46:01;;;;;;;1.52;1.23;;;12.00;99.90;;;;;;4979027;28;20026;-83
2024/03/30 07:48:27;;;;;;;1.30;1.20;;;12.20;99.90;;;;;;4987997;28;20021;-83
2024/03/30 07:50:52;;;;;;;1.00;1.00;;;12.40;99.90;;;;;;4962409;28;20021;-82
2024/03/30 07:53:24;;;;;;;1.30;1.20;;;12.50;99.90;;;;;;4984335;28;20458;-82
2024/03/30 07:55:49;;;;;;;1.20;1.10;;;12.60;99.90;;;;;;4983321;28;20116;-83
2024/03/30 07:58:15;;;;;;;1.23;1.13;;;12.70;99.90;;;;;;4961884;28;20110;-83
2024/03/30 08:00:40;;;;;;;2.25;1.25;;;12.80;99.90;;;;;;4980595;28;20014;-82
2024/03/30 08:03:07;;;;;;;1.40;1.27;;;12.90;99.90;;;;;;4957291;28;20023;-85
2024/03/30 08:05:33;;;;;;;0.80;0.80;;;12.90;99.90;;;;;;4963638;28;20024;-86
2024/03/30 08:07:58;;;;;;;1.30;1.20;;;12.90;99.90;;;;;;4993207;28;20026;-86
2024/03/30 08:10:24;;;;;;;1.25;1.20;;;13.00;99.90;;;;;;4967743;28;20048;-85
2024/03/30 08:12:58;;;;;;;1.60;1.50;;;13.00;99.90;;;;;;4975079;28;20018;-82
2024/03/30 08:15:23;;;;;;;0.85;0.85;;;13.10;99.90;;;;;;4992269;28;20542;-85
2024/03/30 08:17:49;;;;;;;0.70;0.70;;;13.20;99.90;;;;;;4964287;28;20030;-85
2024/03/30 08:20:14;;;;;;;2.08;1.25;;;13.30;99.90;;;;;;4994415;28;20018;-84
2024/03/30 08:22:42;;;;;;;1.75;1.45;;;13.40;99.90;;;;;;4967957;28;20373;-83
2024/03/30 08:25:08;;;;;;;1.15;1.02;;;13.60;99.90;;;;;;4971938;28;21545;-86
2024/03/30 08:27:33;;;;;;;1.20;1.05;;;13.60;99.90;;;;;;4992085;28;20434;-86
2024/03/30 08:30:01;;;;;;;4.13;1.77;;;13.70;99.90;;;;;;4968906;28;20033;-86
2024/03/30 08:32:32;;;;;;;1.30;1.17;;;13.80;99.90;;;;;;4972870;28;20021;-83
2024/03/30 08:34:57;;;;;;;2.17;1.25;;;13.90;99.90;;;;;;4988183;28;20078;-84
2024/03/30 08:37:23;;;;;;;1.30;1.00;;;14.00;99.90;;;;;;4963760;28;20025;-84
2024/03/30 08:39:52;;;;;;;1.38;1.27;;;14.00;99.90;;;;;;4981683;28;20109;-81
2024/03/30 08:42:18;;;;;;;2.25;1.17;;;14.10;99.90;;;;;;4981801;28;20022;-85
2024/03/30 08:44:43;;;;;;;1.58;1.15;;;14.10;99.90;;;;;;4966432;28;20522;-84
2024/03/30 08:47:10;;;;;;;1.35;1.25;;;14.20;99.90;;;;;;4985526;28;20026;-84
2024/03/30 08:49:36;;;;;;;1.33;1.20;;;14.30;99.90;;;;;;4956060;28;20030;-82
2024/03/30 08:52:01;;;;;;;1.92;1.23;;;14.40;99.90;;;;;;4957500;28;20030;-83
2024/03/30 08:54:27;;;;;;;1.38;1.08;;;14.40;99.90;;;;;;4976791;28;20037;-82
2024/03/30 08:56:52;;;;;;;1.52;1.40;;;14.50;99.90;;;;;;4952077;28;20029;-83
2024/03/30 08:59:18;;;;;;;2.03;1.23;;;14.60;99.90;;;;;;4986847;28;20014;-80
2024/03/30 09:01:45;;;;;;;2.28;1.35;;;14.70;99.90;;;;;;4975723;28;20296;-81
2024/03/30 09:04:11;;;;;;;3.25;1.10;;;14.70;99.90;;;;;;4993157;28;20021;-80
2024/03/30 09:06:36;;;;;;;1.15;1.00;;;14.80;99.90;;;;;;4982150;28;20030;-81
2024/03/30 09:09:02;;;;;;;0.95;0.95;;;15.00;99.90;;;;;;4988955;28;20034;-81
2024/03/30 09:11:30;;;;;;;1.00;0.80;;;15.10;99.90;;;;;;4993849;28;20072;-82
2024/03/30 09:13:56;;;;;;;2.15;1.40;;;15.20;99.90;;;;;;5001192;28;20034;-83
2024/03/30 09:16:21;;;;;;;1.42;1.33;;;15.30;99.90;;;;;;4987958;28;20021;-84
2024/03/30 09:18:47;;;;;;;2.03;1.10;;;15.30;99.90;;;;;;4987980;28;20022;-83
2024/03/30 09:21:12;;;;;;;1.30;1.20;;;15.40;99.90;;;;;;4984307;28;20536;-83
2024/03/30 09:23:38;;;;;;;1.23;1.10;;;15.40;99.90;;;;;;4992098;28;21550;-83
2024/03/30 09:26:03;;;;;;;1.25;1.15;;;15.50;99.90;;;;;;5006827;28;20129;-83
2024/03/30 09:28:29;;;;;;;1.42;1.30;;;15.50;99.90;;;;;;4998203;28;20478;-84
2024/03/30 09:30:54;;;;;;;1.27;1.15;;;15.50;99.90;;;;;;4995474;28;20026;-84
2024/03/30 09:33:20;;;;;;;1.42;1.17;;;15.60;99.90;;;;;;5000969;28;20033;-83
2024/03/30 09:35:45;;;;;;;1.70;1.17;;;15.50;99.90;;;;;;4998052;28;21253;-82
2024/03/30 09:38:11;;;;;;;1.35;1.10;;;15.50;99.90;;;;;;4999508;28;20029;-83
2024/03/30 09:40:37;;;;;;;2.10;1.10;;;15.60;99.90;;;;;;4988690;28;20022;-84
2024/03/30 09:43:02;;;;;;;0.90;0.75;;;15.70;99.90;;;;;;4980494;28;20033;-83
2024/03/30 09:45:29;;;;;;;1.00;0.85;;;15.80;99.90;;;;;;4980933;28;20109;-83
2024/03/30 09:48:02;;;;;;;2.05;1.25;;;15.80;99.90;;;;;;4978339;28;20029;-82
2024/03/30 09:50:28;;;;;;;1.83;1.20;;;15.80;99.90;;;;;;4981960;28;20134;-80
2024/03/30 09:52:55;;;;;;;1.90;1.17;;;15.70;99.90;;;;;;4997678;28;20022;-82
2024/03/30 09:55:22;;;;;;;1.05;0.98;;;15.70;99.90;;;;;;4986579;28;20030;-83
2024/03/30 09:57:50;;;;;;;1.38;1.00;;;15.80;99.90;;;;;;4985482;28;20018;-82
2024/03/30 10:00:17;;;;;;;1.50;0.90;;;15.90;99.90;;;;;;4985273;28;20100;-82
2024/03/30 10:02:45;;;;;;;2.13;1.40;;;16.00;99.90;;;;;;4990564;28;21874;-82
2024/03/30 10:05:12;;;;;;;1.55;1.08;;;16.10;99.90;;;;;;4992615;28;20029;-83
2024/03/30 10:07:43;;;;;;;0.93;0.90;;;16.20;99.90;;;;;;4981239;28;20113;-83
2024/03/30 10:10:12;;;;;;;1.58;1.10;;;16.20;99.90;;;;;;4982054;28;20477;-83
2024/03/30 10:12:53;;;;;;;2.20;1.23;;;16.30;99.90;;;;;;4979325;28;20053;-81
2024/03/30 10:15:26;;;;;;;3.80;1.48;;;16.30;99.90;;;;;;4982947;28;20487;-83
2024/03/30 10:17:52;;;;;;;1.27;0.98;;;16.50;99.90;;;;;;4999696;28;20026;-82
2024/03/30 10:20:17;;;;;;;1.95;1.40;;;16.60;99.90;;;;;;4998753;28;20018;-84
2024/03/30 10:22:43;;;;;;;1.73;0.70;;;16.80;99.90;;;;;;5015420;28;20049;-83
2024/03/30 10:25:10;;;;;;;1.55;1.10;;;16.90;99.90;;;;;;5010776;28;20064;-83
2024/03/30 10:27:36;;;;;;;0.90;0.90;;;16.90;99.90;;;;;;5007740;28;21517;-83
2024/03/30 10:30:01;;;;;;;2.30;0.90;;;16.90;99.90;;;;;;5003871;28;20629;-83
2024/03/30 10:32:30;;;;;;;1.65;1.20;;;17.00;99.90;;;;;;4994585;28;20013;-84
2024/03/30 10:34:55;;;;;;;4.07;1.70;;;17.10;99.90;;;;;;5002574;28;20017;-83
2024/03/30 10:37:21;;;;;;;4.05;1.60;;;17.10;99.90;;;;;;5001415;28;20045;-83
2024/03/30 10:39:46;;;;;;;2.67;1.52;;;17.10;99.90;;;;;;4989612;28;20018;-83
2024/03/30 10:42:12;;;;;;;2.40;1.15;;;17.20;99.90;;;;;;4999782;28;20032;-83
2024/03/30 10:44:38;;;;;;;2.22;1.00;;;17.20;99.90;;;;;;5001032;28;20029;-83
2024/03/30 10:47:04;;;;;;;0.98;0.98;;;17.20;99.90;;;;;;4991029;28;20033;-83
2024/03/30 10:49:30;;;;;;;1.45;0.88;;;17.20;99.90;;;;;;4993722;28;20032;-83
2024/03/30 10:51:57;;;;;;;3.25;1.30;;;17.30;99.90;;;;;;4998935;28;20030;-82
2024/03/30 10:54:23;;;;;;;1.85;1.08;;;17.50;99.90;;;;;;4995174;28;20539;-82
2024/03/30 10:56:52;;;;;;;4.70;1.10;;;17.60;99.90;;;;;;4995540;28;20033;-84
2024/03/30 10:59:20;;;;;;;2.80;1.38;;;17.60;99.90;;;;;;4991162;28;20015;-84
2024/03/30 11:01:51;;;;;;;3.83;1.63;;;17.70;99.90;;;;;;4995687;28;20597;-81
2024/03/30 11:04:19;;;;;;;4.38;1.20;;;17.70;99.90;;;;;;5002635;28;20045;-83
2024/03/30 11:06:47;;;;;;;3.17;1.17;;;17.70;99.90;;;;;;4993402;28;20513;-83
2024/03/30 11:09:15;;;;;;;2.15;1.05;;;17.70;99.90;;;;;;5001852;28;20130;-82
2024/03/30 11:11:41;;;;;;;2.28;1.23;;;17.80;99.90;;;;;;5001648;28;20022;-83
2024/03/30 11:14:06;;;;;;;2.55;1.10;;;17.90;99.90;;;;;;4994049;28;20037;-83
2024/03/30 11:16:38;;;;;;;2.83;1.48;;;17.90;99.90;;;;;;5007684;28;20050;-83
2024/03/30 11:19:26;;;;;;;5.55;1.98;;;17.90;99.90;;;;;;5008460;28;20049;-83
2024/03/30 11:22:05;;;;;;;6.15;1.95;;;17.90;99.90;;;;;;4993341;28;20026;-83
2024/03/30 11:24:36;;;;;;;4.88;1.95;;;17.90;99.90;;;;;;4989942;28;20481;-82
2024/03/30 11:27:06;;;;;;;3.95;1.77;;;18.00;99.90;;;;;;5000342;28;20029;-83
2024/03/30 11:29:39;;;;;;;2.67;1.60;;;18.00;99.90;;;;;;4993978;28;20116;-82
2024/03/30 11:32:17;;;;;;;4.25;1.63;;;18.00;99.90;;;;;;4999274;28;21274;-81
2024/03/30 11:35:15;;;;;;;7.82;1.75;;;18.10;99.90;;;;;;4995521;28;20026;-83
2024/03/30 11:37:44;;;;;;;9.40;1.90;;;18.10;99.90;;;;;;4996072;28;20026;-82
2024/03/30 11:40:25;;;;;;;4.55;1.13;;;18.10;99.90;;;;;;4988044;28;20553;-82
2024/03/30 11:43:09;;;;;;;3.83;1.63;;;18.10;99.90;;;;;;4994705;28;20129;-82
2024/03/30 11:45:38;;;;;;;3.58;1.73;;;18.10;99.90;;;;;;5000899;28;20025;-84
2024/03/30 11:48:05;;;;;;;2.92;1.75;;;18.20;99.90;;;;;;4997718;28;20026;-82
2024/03/30 11:50:32;;;;;;;5.25;1.45;;;18.10;99.90;;;;;;4992489;28;20131;-82
2024/03/30 11:52:57;;;;;;;4.07;1.38;;;18.20;99.90;;;;;;4993803;28;20062;-84
2024/03/30 11:55:33;;;;;;;3.40;1.83;;;18.10;99.90;;;;;;4992834;28;21352;-83
2024/03/30 11:58:00;;;;;;;5.55;1.40;;;18.10;99.90;;;;;;4990859;28;20112;-82
2024/03/30 12:00:28;;;;;;;5.60;1.38;;;18.20;99.90;;;;;;4984116;28;20027;-82
2024/03/30 12:03:04;;;;;;;3.47;1.35;;;18.10;99.90;;;;;;4994115;28;20014;-83
2024/03/30 12:05:30;;;;;;;5.30;1.30;;;18.10;99.90;;;;;;4988635;28;20487;-83
2024/03/30 12:07:57;;;;;;;4.80;1.63;;;18.10;99.90;;;;;;4984434;28;20049;-83
2024/03/30 12:10:23;;;;;;;4.07;1.88;;;18.10;99.90;;;;;;4995234;28;20113;-82
2024/03/30 12:12:59;;;;;;;2.20;1.55;;;18.10;99.90;;;;;;4989934;28;20124;-83
2024/03/30 12:15:27;;;;;;;5.38;1.90;;;18.10;99.90;;;;;;4991608;28;20096;-82
2024/03/30 12:17:53;;;;;;;6.05;1.67;;;18.10;99.90;;;;;;5003947;28;20045;-83
2024/03/30 12:20:19;;;;;;;5.13;1.92;;;18.10;99.90;;;;;;4988308;28;20470;-83
2024/03/30 12:22:45;;;;;;;4.55;1.45;;;18.10;99.90;;;;;;5000051;28;20014;-82
2024/03/30 12:25:15;;;;;;;7.93;1.88;;;18.10;99.90;;;;;;4984541;28;20026;-82
2024/03/30 12:27:43;;;;;;;6.18;2.00;;;18.20;99.90;;;;;;4987117;28;20588;-82
2024/03/30 12:30:09;;;;;;;6.65;1.63;;;18.20;99.90;;;;;;4992753;28;20029;-82
2024/03/30 12:32:35;;;;;;;7.47;2.78;;;18.30;99.90;;;;;;4988289;28;20030;-83
2024/03/30 12:35:01;;;;;;;8.45;2.20;;;18.40;99.90;;;;;;4981841;28;20018;-83
2024/03/30 12:37:27;;;;;;;6.43;1.83;;;18.50;99.90;;;;;;4998382;28;20385;-82
2024/03/30 12:39:53;;;;;;;4.10;2.28;;;18.60;99.90;;;;;;4980971;28;20026;-82
2024/03/30 12:42:19;;;;;;;6.60;2.13;;;18.60;99.90;;;;;;4996503;28;20116;-82
2024/03/30 12:44:45;;;;;;;5.70;1.70;;;18.70;99.90;;;;;;4999840;28;20014;-84
2024/03/30 12:47:12;;;;;;;7.60;2.35;;;18.80;99.90;;;;;;4995983;28;20082;-82
2024/03/30 12:49:37;;;;;;;6.15;2.45;;;18.80;99.90;;;;;;4997377;28;20225;-83
2024/03/30 12:52:03;;;;;;;6.35;2.13;;;18.80;99.90;;;;;;4982925;28;20033;-82
2024/03/30 12:54:30;;;;;;;9.77;2.28;;;18.90;99.90;;;;;;4983868;28;20039;-83